createdAt,value
2024-04-22T00:00:59.472Z,4.32
2024-04-22T00:03:26.252Z,4.28
2024-04-22T00:05:54.702Z,3.78
2024-04-22T00:08:21.633Z,3.67
2024-04-22T00:10:48.484Z,3.13
2024-04-22T00:13:15.367Z,3.95
2024-04-22T00:15:42.120Z,4.75
2024-04-22T00:18:08.910Z,3.28
2024-04-22T00:20:40.850Z,3.80
2024-04-22T00:23:07.677Z,2.97
2024-04-22T00:25:34.552Z,3.75
2024-04-22T00:28:01.417Z,3.60
2024-04-22T00:30:28.165Z,2.85
2024-04-22T00:32:55.041Z,3.42
2024-04-22T00:35:21.893Z,3.78
2024-04-22T00:37:48.654Z,5.97
2024-04-22T00:40:15.638Z,4.40
2024-04-22T00:42:44.951Z,4.07
2024-04-22T00:45:12.055Z,4.93
2024-04-22T00:47:39.139Z,2.80
2024-04-22T00:50:09.359Z,4.20
2024-04-22T00:52:37.508Z,4.25
2024-04-22T00:55:04.752Z,4.53
2024-04-22T00:57:32.139Z,4.10
2024-04-22T00:59:59.506Z,3.78
2024-04-22T01:02:26.516Z,2.90
2024-04-22T01:04:53.517Z,3.28
2024-04-22T01:07:20.327Z,4.00
2024-04-22T01:09:47.153Z,3.92
2024-04-22T01:12:13.976Z,4.65
2024-04-22T01:14:40.759Z,5.60
2024-04-22T01:17:07.583Z,3.40
2024-04-22T01:19:34.514Z,3.67
2024-04-22T01:22:01.364Z,3.90
2024-04-22T01:24:28.223Z,4.07
2024-04-22T01:26:57.546Z,4.15
2024-04-22T01:29:24.610Z,4.50
2024-04-22T01:31:51.447Z,3.38
2024-04-22T01:34:18.289Z,4.53
2024-04-22T01:36:45.952Z,4.32
2024-04-22T01:39:13.595Z,4.25
2024-04-22T01:41:40.372Z,4.63
2024-04-22T01:44:07.181Z,4.97
2024-04-22T01:46:34.169Z,3.58
2024-04-22T01:49:01.121Z,3.85
2024-04-22T01:51:27.871Z,3.90
2024-04-22T01:53:54.668Z,4.63
2024-04-22T01:56:21.555Z,5.88
2024-04-22T01:58:50.424Z,4.20
2024-04-22T02:01:17.331Z,4.55
2024-04-22T02:03:44.193Z,4.22
2024-04-22T02:06:11.014Z,3.85
2024-04-22T02:08:37.856Z,4.07
2024-04-22T02:11:04.907Z,4.53
2024-04-22T02:13:31.972Z,4.38
2024-04-22T02:15:58.810Z,4.60
2024-04-22T02:18:25.592Z,4.43
2024-04-22T02:20:52.362Z,5.50
2024-04-22T02:23:19.127Z,3.58
2024-04-22T02:25:46.524Z,3.47
2024-04-22T02:28:13.440Z,4.85
2024-04-22T02:30:40.540Z,4.13
2024-04-22T02:33:10.297Z,4.40
2024-04-22T02:35:37.329Z,3.83
2024-04-22T02:38:04.615Z,3.78
2024-04-22T02:40:31.480Z,4.95
2024-04-22T02:42:58.343Z,4.15
2024-04-22T02:45:28.883Z,3.70
2024-04-22T02:47:55.692Z,4.00
2024-04-22T02:50:22.488Z,3.42
2024-04-22T02:52:49.328Z,4.22
2024-04-22T02:55:16.226Z,4.35
2024-04-22T02:57:43.216Z,4.18
2024-04-22T03:00:10.684Z,3.90
2024-04-22T03:02:38.829Z,4.18
2024-04-22T03:05:06.619Z,4.07
2024-04-22T03:07:33.621Z,4.13
2024-04-22T03:10:00.603Z,3.88
2024-04-22T03:12:27.381Z,4.22
2024-04-22T03:14:54.156Z,3.65
2024-04-22T03:17:20.951Z,3.25
2024-04-22T03:19:47.775Z,4.25
2024-04-22T03:22:14.597Z,4.53
2024-04-22T03:24:41.373Z,4.30
2024-04-22T03:27:08.167Z,5.15
2024-04-22T03:29:35.038Z,4.47
2024-04-22T03:32:02.041Z,4.50
2024-04-22T03:34:29.009Z,3.72
2024-04-22T03:36:55.972Z,3.38
2024-04-22T03:39:22.902Z,4.20
2024-04-22T03:41:49.680Z,3.83
2024-04-22T03:44:16.498Z,3.38
2024-04-22T03:47:01.789Z,3.83
2024-04-22T03:49:47.203Z,3.75
2024-04-22T03:52:14.026Z,3.55
2024-04-22T03:54:40.784Z,3.88
2024-04-22T03:57:07.621Z,4.32
2024-04-22T03:59:34.426Z,3.13
2024-04-22T04:02:01.194Z,4.05
2024-04-22T04:04:28.200Z,3.33
2024-04-22T04:06:55.202Z,3.63
2024-04-22T04:09:22.073Z,3.83
2024-04-22T04:11:49.865Z,2.75
2024-04-22T04:14:16.743Z,4.65
2024-04-22T04:16:43.702Z,3.38
2024-04-22T04:19:10.658Z,3.25
2024-04-22T04:21:37.928Z,3.35
2024-04-22T04:24:05.230Z,2.67
2024-04-22T04:26:32.070Z,3.60
2024-04-22T04:28:58.844Z,2.80
2024-04-22T04:31:25.748Z,2.80
2024-04-22T04:33:52.634Z,2.67
2024-04-22T04:36:19.550Z,2.88
2024-04-22T04:38:46.333Z,2.85
2024-04-22T04:41:13.167Z,2.95
2024-04-22T04:43:39.951Z,2.92
2024-04-22T04:46:06.861Z,2.40
2024-04-22T04:48:33.704Z,2.70
2024-04-22T04:51:00.492Z,2.70
2024-04-22T04:53:27.238Z,3.13
2024-04-22T04:55:54.054Z,2.90
2024-04-22T04:58:23.879Z,2.60
2024-04-22T05:00:52.299Z,2.47
2024-04-22T05:03:19.163Z,2.83
2024-04-22T05:05:46.080Z,2.83
2024-04-22T05:08:12.985Z,2.30
2024-04-22T05:10:39.956Z,3.15
2024-04-22T05:13:06.936Z,2.78
2024-04-22T05:15:33.725Z,2.90
2024-04-22T05:18:00.672Z,3.05
2024-04-22T05:20:31.246Z,2.58
2024-04-22T05:22:58.587Z,2.47
2024-04-22T05:25:25.538Z,2.83
2024-04-22T05:27:54.134Z,3.38
2024-04-22T05:30:20.880Z,2.85
2024-04-22T05:32:47.844Z,2.95
2024-04-22T05:35:33.232Z,2.72
2024-04-22T05:37:59.970Z,2.80
2024-04-22T05:40:26.923Z,3.40
2024-04-22T05:42:54.031Z,3.53
2024-04-22T05:45:20.844Z,2.83
2024-04-22T05:47:47.667Z,2.85
2024-04-22T05:50:14.558Z,2.78
2024-04-22T05:52:41.757Z,3.45
2024-04-22T05:55:09.852Z,3.03
2024-04-22T05:57:36.741Z,2.03
2024-04-22T06:00:03.713Z,4.63
2024-04-22T06:02:30.576Z,2.72
2024-04-22T06:04:57.373Z,3.42
2024-04-22T06:07:25.911Z,3.30
2024-04-22T06:09:52.697Z,3.20
2024-04-22T06:12:20.298Z,3.05
2024-04-22T06:14:47.523Z,3.80
2024-04-22T06:17:14.460Z,2.65
2024-04-22T06:19:41.542Z,2.95
2024-04-22T06:22:08.515Z,3.05
2024-04-22T06:24:35.352Z,3.20
2024-04-22T06:27:02.337Z,3.45
2024-04-22T06:29:29.138Z,2.80
2024-04-22T06:31:56.032Z,2.97
2024-04-22T06:34:22.986Z,1.80
2024-04-22T06:36:49.856Z,3.03
2024-04-22T06:39:17.577Z,1.92
2024-04-22T06:41:44.492Z,3.55
2024-04-22T06:44:11.852Z,1.55
2024-04-22T06:46:39.269Z,2.55
2024-04-22T06:49:06.262Z,2.60
2024-04-22T06:51:33.060Z,2.97
2024-04-22T06:53:59.878Z,2.60
2024-04-22T06:56:28.174Z,3.38
2024-04-22T06:58:55.154Z,2.40
2024-04-22T07:01:30.750Z,3.05
2024-04-22T07:04:02.585Z,3.30
2024-04-22T07:06:29.459Z,4.20
2024-04-22T07:08:56.234Z,3.35
2024-04-22T07:11:23.241Z,3.08
2024-04-22T07:13:50.163Z,2.80
2024-04-22T07:16:17.125Z,2.80
2024-04-22T07:18:44.076Z,2.88
2024-04-22T07:21:10.822Z,4.05
2024-04-22T07:23:37.623Z,3.53
2024-04-22T07:26:05.300Z,2.22
2024-04-22T07:28:32.522Z,3.70
2024-04-22T07:30:59.777Z,3.63
2024-04-22T07:33:30.913Z,3.28
2024-04-22T07:36:10.965Z,3.25
2024-04-22T07:38:39.708Z,2.78
2024-04-22T07:41:06.845Z,2.88
2024-04-22T07:43:33.740Z,3.05
2024-04-22T07:46:00.611Z,2.22
2024-04-22T07:48:27.396Z,3.03
2024-04-22T07:50:54.154Z,2.75
2024-04-22T07:53:21.144Z,3.25
2024-04-22T07:55:48.391Z,2.33
2024-04-22T07:58:15.551Z,2.00
2024-04-22T08:00:42.881Z,3.10
2024-04-22T08:03:10.211Z,2.92
2024-04-22T08:05:37.239Z,2.58
2024-04-22T08:08:08.507Z,3.35
2024-04-22T08:10:35.399Z,2.58
2024-04-22T08:13:02.385Z,2.85
2024-04-22T08:15:29.155Z,2.92
2024-04-22T08:17:56.248Z,4.05
2024-04-22T08:20:23.213Z,3.67
2024-04-22T08:22:50.063Z,2.72
2024-04-22T08:25:16.961Z,2.05
2024-04-22T08:27:44.039Z,2.60
2024-04-22T08:30:11.282Z,2.22
2024-04-22T08:32:38.348Z,3.13
2024-04-22T08:35:05.576Z,2.13
2024-04-22T08:37:32.405Z,2.25
2024-04-22T08:39:59.330Z,2.95
2024-04-22T08:42:26.254Z,2.58
2024-04-22T08:44:54.047Z,2.55
2024-04-22T08:47:21.576Z,2.60
2024-04-22T08:49:48.744Z,2.88
2024-04-22T08:52:18.587Z,2.05
2024-04-22T08:54:46.797Z,1.85
2024-04-22T08:57:14.255Z,2.22
2024-04-22T08:59:42.426Z,1.70
2024-04-22T09:02:13.041Z,1.90
2024-04-22T09:04:40.291Z,2.50
2024-04-22T09:07:15.567Z,2.35
2024-04-22T09:10:07.812Z,1.92
2024-04-22T09:12:36.062Z,2.33
2024-04-22T09:15:04.135Z,2.53
2024-04-22T09:17:31.921Z,2.17
2024-04-22T09:19:59.422Z,1.98
2024-04-22T09:22:26.284Z,1.73
2024-04-22T09:24:54.053Z,1.25
2024-04-22T09:27:21.359Z,1.30
2024-04-22T09:29:53.377Z,2.00
2024-04-22T09:32:24.703Z,2.25
2024-04-22T09:34:56.338Z,1.90
2024-04-22T09:37:24.138Z,1.80
2024-04-22T09:39:52.344Z,1.40
2024-04-22T09:42:20.231Z,1.35
2024-04-22T09:44:48.484Z,1.10
2024-04-22T09:47:16.885Z,1.40
2024-04-22T09:49:45.564Z,1.83
2024-04-22T09:52:13.158Z,2.25
2024-04-22T09:54:40.261Z,1.20
2024-04-22T09:57:08.442Z,1.60
2024-04-22T09:59:35.519Z,1.90
2024-04-22T10:02:02.619Z,2.10
2024-04-22T10:04:29.725Z,2.03
2024-04-22T10:06:56.964Z,1.70
2024-04-22T10:09:23.804Z,2.22
2024-04-22T10:11:50.984Z,1.70
2024-04-22T10:14:20.455Z,1.88
2024-04-22T10:16:56.202Z,2.28
2024-04-22T10:19:23.734Z,3.00
2024-04-22T10:21:53.415Z,2.75
2024-04-22T10:24:37.743Z,3.00
2024-04-22T10:27:12.056Z,2.40
2024-04-22T10:29:42.243Z,2.55
2024-04-22T10:32:11.099Z,2.47
2024-04-22T10:34:43.279Z,1.52
2024-04-22T10:37:10.980Z,2.35
2024-04-22T10:39:37.997Z,2.30
2024-04-22T10:42:05.272Z,1.95
2024-04-22T10:44:32.099Z,1.60
2024-04-22T10:47:01.188Z,1.88
2024-04-22T10:49:30.812Z,2.08
2024-04-22T10:51:57.753Z,1.55
2024-04-22T10:54:24.599Z,1.83
2024-04-22T10:56:51.474Z,2.40
2024-04-22T10:59:19.349Z,1.98
2024-04-22T11:01:47.447Z,1.75
2024-04-22T11:04:15.259Z,1.70
2024-04-22T11:06:42.431Z,1.90
2024-04-22T11:09:09.605Z,1.80
2024-04-22T11:11:37.530Z,1.52
2024-04-22T11:14:05.337Z,1.05
2024-04-22T11:16:32.347Z,1.60
2024-04-22T11:19:07.394Z,1.50
2024-04-22T11:21:35.792Z,1.30
2024-04-22T11:24:03.804Z,1.42
2024-04-22T11:26:30.875Z,1.48
2024-04-22T11:29:00.154Z,1.77
2024-04-22T11:31:27.253Z,1.50
2024-04-22T11:33:57.212Z,1.10
2024-04-22T11:36:26.839Z,1.40
2024-04-22T11:38:56.449Z,2.05
2024-04-22T11:41:23.686Z,1.45
2024-04-22T11:43:50.622Z,1.85
2024-04-22T11:46:17.454Z,1.90
2024-04-22T11:48:46.364Z,1.50
2024-04-22T11:51:13.246Z,2.05
2024-04-22T11:53:40.063Z,1.88
2024-04-22T11:56:08.898Z,1.63
2024-04-22T11:58:36.107Z,1.35
2024-04-22T12:01:03.089Z,1.40
2024-04-22T12:03:29.984Z,1.33
2024-04-22T12:05:56.761Z,1.23
2024-04-22T12:08:23.643Z,0.93
2024-04-22T12:10:51.206Z,2.17
2024-04-22T12:13:18.046Z,1.50
2024-04-22T12:15:44.923Z,1.35
2024-04-22T12:18:11.759Z,2.35
2024-04-22T12:20:38.593Z,2.67
2024-04-22T12:23:05.632Z,1.90
2024-04-22T12:25:32.486Z,2.20
2024-04-22T12:28:05.900Z,2.00
2024-04-22T12:30:40.549Z,1.30
2024-04-22T12:33:07.657Z,1.85
2024-04-22T12:35:39.048Z,2.05
2024-04-22T12:38:07.135Z,2.25
2024-04-22T12:40:35.122Z,2.38
2024-04-22T12:43:02.747Z,2.50
2024-04-22T12:45:30.070Z,1.63
2024-04-22T12:48:15.660Z,2.85
2024-04-22T12:50:46.863Z,2.72
2024-04-22T12:53:14.104Z,2.80
2024-04-22T12:55:40.973Z,2.65
2024-04-22T12:58:07.887Z,2.97
2024-04-22T13:00:34.843Z,2.45
2024-04-22T13:03:02.038Z,3.13
2024-04-22T13:05:28.856Z,2.38
2024-04-22T13:07:56.159Z,2.53
2024-04-22T13:10:23.936Z,2.13
2024-04-22T13:12:50.707Z,3.10
2024-04-22T13:15:17.640Z,2.33
2024-04-22T13:17:44.513Z,2.67
2024-04-22T13:20:12.152Z,2.72
2024-04-22T13:22:39.034Z,3.33
2024-04-22T13:25:07.394Z,2.40
2024-04-22T13:27:35.282Z,3.33
2024-04-22T13:30:05.366Z,2.40
2024-04-22T13:32:32.427Z,2.10
2024-04-22T13:34:59.802Z,2.67
2024-04-22T13:37:26.560Z,2.67
2024-04-22T13:39:53.300Z,2.67
2024-04-22T13:42:20.473Z,2.15
2024-04-22T13:44:47.352Z,1.80
2024-04-22T13:47:14.137Z,2.08
2024-04-22T13:49:40.970Z,2.10
2024-04-22T13:52:07.920Z,1.80
2024-04-22T13:54:34.679Z,1.60
2024-04-22T13:57:01.517Z,1.60
2024-04-22T13:59:28.305Z,3.00
2024-04-22T14:01:55.238Z,2.55
2024-04-22T14:04:23.702Z,2.53
2024-04-22T14:06:50.560Z,2.35
2024-04-22T14:09:17.344Z,2.40
2024-04-22T14:11:44.250Z,2.08
2024-04-22T14:14:11.341Z,2.40
2024-04-22T14:16:38.170Z,2.15
2024-04-22T14:19:05.026Z,2.17
2024-04-22T14:21:31.826Z,2.15
2024-04-22T14:23:58.601Z,2.47
2024-04-22T14:26:25.408Z,2.08
2024-04-22T14:28:52.212Z,2.30
2024-04-22T14:31:19.175Z,2.20
2024-04-22T14:33:46.579Z,1.70
2024-04-22T14:36:13.422Z,1.73
2024-04-22T14:38:40.268Z,1.70
2024-04-22T14:41:07.060Z,2.13
2024-04-22T14:43:33.961Z,1.75
2024-04-22T14:46:00.776Z,1.80
2024-04-22T14:48:28.468Z,1.48
2024-04-22T14:50:55.618Z,1.63
2024-04-22T14:53:22.458Z,1.50
2024-04-22T14:55:49.475Z,1.80
2024-04-22T14:58:16.914Z,1.67
2024-04-22T15:00:43.709Z,1.80
2024-04-22T15:03:10.518Z,1.40
2024-04-22T15:05:37.300Z,2.03
2024-04-22T15:08:04.631Z,1.40
2024-04-22T15:10:31.533Z,1.40
2024-04-22T15:12:58.585Z,1.10
2024-04-22T15:15:25.372Z,1.17
2024-04-22T15:17:52.534Z,1.42
2024-04-22T15:20:19.410Z,1.15
2024-04-22T15:22:46.238Z,1.20
2024-04-22T15:25:13.380Z,1.35
2024-04-22T15:27:40.131Z,1.30
2024-04-22T15:30:07.477Z,1.40
2024-04-22T15:32:34.442Z,1.10
2024-04-22T15:35:01.499Z,0.98
2024-04-22T15:37:28.327Z,1.15
2024-04-22T15:39:55.167Z,1.10
2024-04-22T15:42:22.666Z,1.25
2024-04-22T15:44:49.420Z,1.20
2024-04-22T15:47:20.210Z,1.10
2024-04-22T15:49:49.111Z,1.27
2024-04-22T15:52:16.032Z,1.10
2024-04-22T15:54:42.924Z,1.92
2024-04-22T15:57:09.796Z,2.00
2024-04-22T15:59:36.722Z,1.02
2024-04-22T16:02:04.405Z,1.50
2024-04-22T16:04:31.408Z,1.23
2024-04-22T16:06:58.358Z,1.23
2024-04-22T16:09:25.675Z,1.50
2024-04-22T16:11:53.284Z,1.63
2024-04-22T16:14:20.082Z,1.58
2024-04-22T16:16:46.989Z,1.60
2024-04-22T16:19:14.063Z,1.73
2024-04-22T16:21:41.293Z,1.17
2024-04-22T16:24:08.116Z,1.45
2024-04-22T16:26:34.906Z,1.58
2024-04-22T16:29:03.463Z,1.50
2024-04-22T16:31:30.316Z,1.38
2024-04-22T16:33:57.212Z,1.17
2024-04-22T16:36:25.287Z,1.20
2024-04-22T16:38:52.052Z,1.23
2024-04-22T16:41:18.843Z,1.80
2024-04-22T16:43:45.691Z,2.30
2024-04-22T16:46:12.464Z,1.45
2024-04-22T16:48:41.364Z,1.48
2024-04-22T16:51:08.222Z,1.45
2024-04-22T16:53:35.005Z,1.63
2024-04-22T16:56:01.864Z,1.30
2024-04-22T16:58:32.588Z,1.55
2024-04-22T17:00:59.871Z,1.35
2024-04-22T17:03:28.371Z,1.85
2024-04-22T17:05:58.968Z,1.70
2024-04-22T17:08:25.999Z,1.50
2024-04-22T17:10:52.882Z,1.80
2024-04-22T17:13:19.730Z,1.67
2024-04-22T17:15:46.547Z,1.60
2024-04-22T17:18:13.485Z,1.30
2024-04-22T17:20:40.309Z,1.40
2024-04-22T17:23:16.989Z,1.58
2024-04-22T17:25:43.892Z,1.20
2024-04-22T17:28:11.824Z,1.20
2024-04-22T17:30:38.726Z,1.13
2024-04-22T17:33:05.785Z,1.30
2024-04-22T17:35:32.632Z,1.30
2024-04-22T17:37:59.515Z,1.70
2024-04-22T17:40:26.374Z,1.30
2024-04-22T17:42:53.143Z,1.13
2024-04-22T17:45:19.973Z,1.30
2024-04-22T17:47:46.873Z,1.30
2024-04-22T17:50:13.762Z,1.20
2024-04-22T17:52:40.551Z,1.05
2024-04-22T17:55:10.239Z,1.23
2024-04-22T17:57:37.939Z,1.25
2024-04-22T18:00:05.261Z,1.33
2024-04-22T18:02:32.027Z,1.42
2024-04-22T18:04:58.898Z,1.48
2024-04-22T18:07:26.732Z,1.13
2024-04-22T18:09:53.633Z,1.48
2024-04-22T18:12:20.431Z,1.15
2024-04-22T18:14:48.490Z,1.30
2024-04-22T18:17:15.524Z,1.05
2024-04-22T18:19:42.396Z,1.25
2024-04-22T18:22:14.159Z,1.45
2024-04-22T18:24:44.506Z,1.63
2024-04-22T18:27:11.275Z,1.40
2024-04-22T18:29:38.380Z,1.70
2024-04-22T18:32:05.481Z,1.40
2024-04-22T18:34:32.768Z,1.48
2024-04-22T18:37:00.603Z,1.30
2024-04-22T18:39:27.645Z,1.08
2024-04-22T18:41:54.471Z,2.35
2024-04-22T18:44:21.589Z,1.20
2024-04-22T18:46:48.560Z,2.08
2024-04-22T18:49:15.426Z,1.50
2024-04-22T18:51:42.255Z,1.55
2024-04-22T18:54:09.167Z,2.00
2024-04-22T18:56:35.969Z,1.88
2024-04-22T18:59:02.760Z,1.70
2024-04-22T19:01:29.592Z,1.95
2024-04-22T19:03:56.560Z,1.98
2024-04-22T19:06:23.514Z,2.08
2024-04-22T19:08:50.274Z,1.67
2024-04-22T19:11:17.121Z,1.90
2024-04-22T19:13:44.720Z,1.83
2024-04-22T19:16:11.695Z,1.70
2024-04-22T19:18:38.528Z,2.65
2024-04-22T19:21:05.518Z,2.17
2024-04-22T19:23:32.329Z,2.35
2024-04-22T19:25:59.148Z,1.63
2024-04-22T19:28:28.096Z,1.70
2024-04-22T19:30:56.926Z,1.77
2024-04-22T19:33:23.843Z,1.85
2024-04-22T19:35:51.857Z,2.33
2024-04-22T19:38:19.349Z,2.13
2024-04-22T19:40:46.414Z,2.03
2024-04-22T19:43:13.229Z,1.80
2024-04-22T19:45:39.977Z,1.90
2024-04-22T19:48:07.335Z,1.70
2024-04-22T19:50:34.946Z,2.03
2024-04-22T19:53:01.835Z,1.70
2024-04-22T19:55:28.761Z,2.08
2024-04-22T19:57:55.525Z,2.20
2024-04-22T20:00:22.825Z,2.13
2024-04-22T20:02:50.042Z,2.10
2024-04-22T20:05:17.523Z,1.80
2024-04-22T20:07:44.358Z,1.75
2024-04-22T20:10:11.201Z,2.15
2024-04-22T20:12:39.726Z,1.80
2024-04-22T20:15:07.081Z,1.88
2024-04-22T20:18:03.077Z,1.83
2024-04-22T20:20:29.895Z,2.67
2024-04-22T20:22:57.641Z,2.80
2024-04-22T20:25:25.197Z,1.85
2024-04-22T20:27:51.953Z,2.20
2024-04-22T20:30:21.592Z,2.90
2024-04-22T20:32:48.715Z,2.67
2024-04-22T20:35:15.634Z,2.70
2024-04-22T20:37:42.406Z,2.92
2024-04-22T20:40:09.396Z,2.13
2024-04-22T20:42:36.154Z,2.38
2024-04-22T20:45:02.959Z,2.00
2024-04-22T20:47:29.797Z,2.05
2024-04-22T20:49:56.694Z,1.90
2024-04-22T20:52:23.519Z,2.05
2024-04-22T20:54:50.978Z,1.80
2024-04-22T20:57:17.794Z,2.33
2024-04-22T20:59:44.851Z,2.10
2024-04-22T21:02:11.704Z,1.98
2024-04-22T21:04:38.519Z,2.05
2024-04-22T21:07:07.135Z,2.13
2024-04-22T21:09:34.156Z,2.00
2024-04-22T21:12:00.910Z,2.50
2024-04-22T21:14:27.844Z,2.25
2024-04-22T21:16:54.713Z,2.10
2024-04-22T21:19:21.486Z,2.50
2024-04-22T21:21:48.451Z,2.33
2024-04-22T21:24:15.252Z,2.80
2024-04-22T21:26:42.246Z,2.70
2024-04-22T21:29:09.057Z,2.10
2024-04-22T21:31:35.871Z,1.65
2024-04-22T21:36:32.421Z,2.45
2024-04-22T21:38:59.168Z,2.20
2024-04-22T21:41:25.913Z,2.17
2024-04-22T21:43:52.825Z,2.78
2024-04-22T21:46:19.681Z,2.05
2024-04-22T21:48:46.534Z,1.88
2024-04-22T21:51:13.323Z,2.22
2024-04-22T21:53:40.083Z,2.10
2024-04-22T21:56:09.990Z,2.47
2024-04-22T21:59:14.706Z,2.00
2024-04-22T22:02:19.263Z,2.28
2024-04-22T22:05:23.758Z,3.10
2024-04-22T22:07:50.659Z,2.45
2024-04-22T22:10:17.630Z,2.30
2024-04-22T22:12:44.435Z,2.20
2024-04-22T22:15:11.323Z,2.38
2024-04-22T22:17:38.507Z,2.33
2024-04-22T22:20:06.011Z,2.75
2024-04-22T22:22:32.787Z,2.72
2024-04-22T22:24:59.650Z,2.10
2024-04-22T22:27:26.464Z,2.42
2024-04-22T22:29:53.279Z,2.75
2024-04-22T22:32:20.089Z,2.10
2024-04-22T22:34:46.966Z,2.38
2024-04-22T22:37:13.748Z,2.13
2024-04-22T22:39:40.483Z,2.22
2024-04-22T22:42:07.209Z,2.08
2024-04-22T22:44:34.003Z,2.28
2024-04-22T22:47:02.224Z,3.22
2024-04-22T22:49:29.122Z,2.47
2024-04-22T22:51:55.993Z,2.22
2024-04-22T22:54:22.751Z,2.75
2024-04-22T22:56:59.117Z,2.65
2024-04-22T22:59:26.848Z,2.90
2024-04-22T23:01:54.754Z,2.50
2024-04-22T23:04:22.157Z,2.65
2024-04-22T23:06:48.991Z,2.08
2024-04-22T23:09:15.735Z,2.20
2024-04-22T23:11:42.635Z,2.60
2024-04-22T23:14:09.461Z,2.83
2024-04-22T23:16:36.252Z,2.35
2024-04-22T23:19:03.180Z,2.72
2024-04-22T23:21:29.981Z,2.45
2024-04-22T23:23:56.745Z,2.30
2024-04-22T23:26:23.505Z,2.45
2024-04-22T23:28:50.408Z,2.55
2024-04-22T23:31:17.184Z,2.60
2024-04-22T23:33:43.993Z,2.67
2024-04-22T23:36:10.758Z,2.80
2024-04-22T23:38:37.522Z,2.40
2024-04-22T23:41:04.474Z,1.83
2024-04-22T23:43:31.239Z,2.85
2024-04-22T23:45:58.070Z,2.30
2024-04-22T23:48:24.909Z,2.78
2024-04-22T23:50:51.746Z,2.42
2024-04-22T23:53:20.660Z,2.88
2024-04-22T23:55:47.525Z,2.00
2024-04-22T23:58:14.370Z,2.20
